Flight Track Log - Related Links

Times and Time Zones

All times are in EDT time to prevent confusion due to time zone crossing. See the UAL4236 flight status page for this flight to view local times or setup timezone preferences in your user account.

Time Position Orientation Groundspeed Altitude Reporting Facility
EDT Latitude Longitude Course Direction KTS MPH feet Rate Location/Type
Fri 06:52:19 AM 39.7000 -86.3000 201° Southwest 141 162 1,400  Level Indianapolis TRACON
Fri 06:53:25 AM 39.6667 -86.3500 229° Southwest 178 205 3,300 1,545 Climbing Indianapolis TRACON
Fri 06:54:31 AM 39.6000 -86.3500 180° South 261 300 4,800 1,856 Climbing Indianapolis TRACON
Fri 06:55:00 AM 39.4616 -86.4196 204° Southwest  Level FlightAware Approximate
Fri 06:55:02 AM 39.5603 -86.3503 180° South 225 259 6,300  Level Indianapolis Center
Fri 06:56:00 AM 39.3767 -86.4681 204° Southwest  Level FlightAware Approximate
Fri 06:56:03 AM 39.5022 -86.3844 204° Southwest 227 261 8,400  Level Indianapolis Center
Fri 06:57:00 AM 39.2907 -86.5130 201° Southwest  Level FlightAware Approximate
Fri 06:57:04 AM 39.4431 -86.4225 206° Southwest 232 267 10,500  Level Indianapolis Center
Fri 06:58:04 AM 39.3861 -86.4706 213° Southwest 237 273 11,600 1,041 Climbing Indianapolis Center
Fri 06:59:05 AM 39.3242 -86.5303 217° Southwest 257 296 12,600 984 Climbing Indianapolis Center
Fri 07:00:06 AM 39.2553 -86.5928 215° Southwest 281 323 13,600 934 Climbing Indianapolis Center
Fri 07:01:07 AM 39.1828 -86.6589 215° Southwest 302 348 14,500 934 Climbing Indianapolis Center
Fri 07:02:08 AM 39.1081 -86.7253 215° Southwest 315 362 15,500 942 Climbing Indianapolis Center
Fri 07:03:08 AM 39.0328 -86.7933 215° Southwest 325 374 16,400 942 Climbing Indianapolis Center
Fri 07:04:09 AM 38.9569 -86.8611 215° Southwest 330 380 17,400 1,033 Climbing Indianapolis Center
Fri 07:05:10 AM 38.8800 -86.9292 215° Southwest 336 387 18,500 1,033 Climbing Indianapolis Center
Fri 07:06:11 AM 38.8036 -86.9983 215° Southwest 336 387 19,500 934 Climbing Indianapolis Center
Fri 07:07:12 AM 38.7253 -87.0669 214° Southwest 339 390 20,400 934 Climbing Indianapolis Center
Fri 07:08:13 AM 38.6472 -87.1356 214° Southwest 341 392 21,400 934 Climbing Indianapolis Center
Fri 07:09:14 AM 38.5678 -87.2047 214° Southwest 345 397 22,300 992 Climbing Indianapolis Center
Fri 07:10:14 AM 38.4733 -87.2878 215° Southwest 346 398 23,400 1,041 Climbing Indianapolis Center
Fri 07:11:15 AM 38.3944 -87.3564 214° Southwest 346 398 24,400 934 Climbing Indianapolis Center
Fri 07:12:16 AM 38.3161 -87.4250 215° Southwest 345 397 25,300 885 Climbing Indianapolis Center
Fri 07:13:17 AM 38.2386 -87.4944 215° Southwest 342 394 26,200 934 Climbing Indianapolis Center
Fri 07:14:18 AM 38.1636 -87.5611 215° Southwest 334 384 27,200 934 Climbing Indianapolis Center
Fri 07:15:19 AM 38.0900 -87.6242 214° Southwest 324 373 28,100 885 Climbing Indianapolis Center
Fri 07:16:20 AM 38.0172 -87.6844 213° Southwest 315 362 29,000 885 Climbing Indianapolis Center
Fri 07:17:21 AM 37.9444 -87.7433 213° Southwest 310 357 29,900 934 Climbing Indianapolis Center
Fri 07:18:22 AM 37.8747 -87.8025 214° Southwest 304 350 30,900 934 Climbing Indianapolis Center
Fri 07:19:23 AM 37.8064 -87.8656 216° Southwest 303 349 31,800 934 Climbing Indianapolis Center
Fri 07:20:24 AM 37.7344 -87.9319 216° Southwest 298 343 32,800 984 Climbing Indianapolis Center
Fri 07:21:25 AM 37.6667 -87.9939 216° Southwest 297 342 33,800 927 Climbing Indianapolis Center
Fri 07:22:27 AM 37.5989 -88.0550 216° Southwest 295 339 34,700 878 Climbing Indianapolis Center
Fri 07:23:28 AM 37.5356 -88.1144 217° Southwest 286 329 35,600 639 Climbing Indianapolis Center
Fri 07:24:29 AM 37.4711 -88.1711 215° Southwest 280 322 36,000 197 Climbing Indianapolis Center
Fri 07:25:30 AM 37.4044 -88.2322 216° Southwest 289 333 36,000  Level Indianapolis Center
Fri 07:26:31 AM 37.3333 -88.2956 215° Southwest 306 352 36,000  Level Indianapolis Center
Fri 07:27:32 AM 37.2597 -88.3736 220° Southwest 323 372 36,000  Level Memphis Center
Fri 07:28:32 AM 37.1836 -88.4406 215° Southwest 329 379 36,000  Level Memphis Center
Fri 07:29:32 AM 37.1056 -88.5103 215° Southwest 340 391 36,000  Level Memphis Center
Fri 07:30:32 AM 37.0294 -88.5769 215° Southwest 345 397 36,000  Level Memphis Center
Fri 07:31:32 AM 36.9533 -88.6436 215° Southwest 345 397 36,000  Level Memphis Center
Fri 07:32:32 AM 36.8792 -88.7075 215° Southwest 340 391 36,000  Level Memphis Center
Fri 07:33:32 AM 36.8031 -88.7736 215° Southwest 340 391 36,000  Level Memphis Center
Fri 07:34:32 AM 36.7267 -88.8400 215° Southwest 340 391 36,000  Level Memphis Center
Fri 07:35:32 AM 36.6503 -88.9086 216° Southwest 340 391 36,000  Level Memphis Center
Fri 07:36:32 AM 36.5739 -88.9744 215° Southwest 340 391 36,000  Level Memphis Center
Fri 07:37:32 AM 36.4975 -89.0406 215° Southwest 340 391 36,000  Level Memphis Center
Fri 07:38:32 AM 36.4108 -89.1114 213° Southwest 340 391 36,000  Level Memphis Center
Fri 07:39:32 AM 36.3322 -89.1822 216° Southwest 346 398 36,000  Level Memphis Center
Fri 07:40:32 AM 36.2494 -89.2478 213° Southwest 352 405 36,000  Level Memphis Center
Fri 07:41:32 AM 36.1731 -89.3183 217° Southwest 357 411 36,000  Level Memphis Center
Fri 07:42:32 AM 36.0944 -89.3886 216° Southwest 351 404 36,000  Level Memphis Center
Fri 07:43:32 AM 36.0156 -89.4561 215° Southwest 351 404 36,000  Level Memphis Center
Fri 07:44:32 AM 35.9369 -89.5239 215° Southwest 351 404 36,000  Level Memphis Center
Fri 07:45:32 AM 35.8581 -89.5911 215° Southwest 351 404 36,000  Level Memphis Center
Fri 07:46:32 AM 35.7792 -89.6611 216° Southwest 351 404 36,000  Level Memphis Center
Fri 07:47:32 AM 35.7003 -89.7281 215° Southwest 351 404 36,000  Level Memphis Center
Fri 07:48:32 AM 35.6339 -89.7900 217° Southwest 343 395 36,000  Level Memphis Center
Fri 07:49:32 AM 35.5528 -89.8569 214° Southwest 348 400 36,000  Level Memphis Center
Fri 07:50:32 AM 35.4675 -89.9314 215° Southwest 348 400 36,000  Level Memphis Center
Fri 07:51:32 AM 35.3844 -90.0006 214° Southwest 354 407 36,000  Level Memphis Center
Fri 07:52:32 AM 35.3053 -90.0669 214° Southwest 354 407 36,000  Level Memphis Center
Fri 07:53:32 AM 35.2261 -90.1383 216° Southwest 352 405 36,000  Level Memphis Center
Fri 07:54:32 AM 35.1450 -90.2022 213° Southwest 352 405 36,000  Level Memphis Center
Fri 07:55:32 AM 35.0658 -90.2708 215° Southwest 352 405 36,000  Level Memphis Center
Fri 07:56:32 AM 34.9864 -90.3394 215° Southwest 352 405 36,000  Level Memphis Center
Fri 07:57:32 AM 34.9050 -90.4053 214° Southwest 352 405 36,000  Level Memphis Center
Fri 07:58:32 AM 34.8258 -90.4708 214° Southwest 352 405 36,000  Level Memphis Center
Fri 07:59:32 AM 34.7464 -90.5367 214° Southwest 347 399 36,000  Level Memphis Center
Fri 08:00:32 AM 34.6669 -90.6019 214° Southwest 352 405 36,000  Level Memphis Center
Fri 08:01:32 AM 34.5875 -90.6650 213° Southwest 352 405 36,000  Level Memphis Center
Fri 08:02:32 AM 34.5081 -90.7303 214° Southwest 352 405 36,000  Level Memphis Center
Fri 08:03:32 AM 34.4267 -90.7953 213° Southwest 352 405 36,000  Level Memphis Center
Fri 08:04:32 AM 34.3533 -90.8503 212° Southwest 352 405 36,000  Level Memphis Center
Fri 08:05:32 AM 34.2739 -90.9153 214° Southwest 352 405 36,000  Level Memphis Center
Fri 08:06:32 AM 34.1919 -90.9775 212° Southwest 352 405 36,000  Level Memphis Center
Fri 08:07:32 AM 34.1103 -91.0419 213° Southwest 352 405 36,000  Level Memphis Center
Fri 08:08:32 AM 34.0286 -91.1092 214° Southwest 352 405 36,000  Level Memphis Center
Fri 08:09:32 AM 33.9489 -91.1711 213° Southwest 352 405 36,000  Level Memphis Center
Fri 08:10:32 AM 33.8650 -91.2353 212° Southwest 352 405 36,000  Level Memphis Center
Fri 08:12:19 AM 33.7161 -91.3533 213° Southwest 353 406 36,000  Level Fort Worth Center
Fri 08:13:19 AM 33.6458 -91.4131 215° Southwest 353 406 36,000  Level Fort Worth Center
Fri 08:14:19 AM 33.5592 -91.4739 210° Southwest 353 406 36,000  Level Fort Worth Center
Fri 08:15:19 AM 33.4808 -91.5414 216° Southwest 353 406 36,000  Level Fort Worth Center
Fri 08:16:19 AM 33.3961 -91.6042 212° Southwest 353 406 36,000  Level Fort Worth Center
Fri 08:17:19 AM 33.3114 -91.6669 212° Southwest 358 412 36,000  Level Fort Worth Center
Fri 08:18:19 AM 33.2308 -91.7294 213° Southwest 358 412 36,000  Level Fort Worth Center
Fri 08:19:20 AM 33.1461 -91.7942 213° Southwest 358 412 36,000  Level Fort Worth Center
Fri 08:20:19 AM 33.0653 -91.8564 213° Southwest 358 412 36,000  Level Fort Worth Center
Fri 08:21:19 AM 32.9744 -91.9214 211° Southwest 358 412 36,000  Level Fort Worth Center
Fri 08:22:19 AM 32.8956 -91.9833 213° Southwest 358 412 36,000  Level Fort Worth Center
Fri 08:23:19 AM 32.8128 -92.0475 213° Southwest 358 412 36,000  Level Fort Worth Center
Fri 08:24:19 AM 32.7258 -92.1094 211° Southwest 358 412 36,000  Level Fort Worth Center
Fri 08:26:39 AM 32.5253 -92.2592 212° Southwest 360 414 36,000  Level Houston Center
Fri 08:27:41 AM 32.4417 -92.3225 213° Southwest 359 413 36,000  Level Houston Center
Fri 08:28:42 AM 32.3594 -92.3892 214° Southwest 359 413 36,000  Level Houston Center
Fri 08:29:44 AM 32.2742 -92.4528 212° Southwest 363 418 36,000  Level Houston Center
Fri 08:30:45 AM 32.1717 -92.5267 211° Southwest 363 418 36,000  Level Houston Center
Fri 08:31:47 AM 32.0867 -92.5919 213° Southwest 365 420 36,000  Level Houston Center
Fri 08:32:48 AM 31.9994 -92.6575 213° Southwest 372 428 36,000  Level Houston Center
Fri 08:33:50 AM 31.9172 -92.7297 217° Southwest 371 427 36,000  Level Houston Center
Fri 08:34:51 AM 31.8389 -92.8072 220° Southwest 369 425 36,000  Level Houston Center
Fri 08:35:52 AM 31.7608 -92.8822 219° Southwest 365 420 36,000 -49 Level Houston Center
Fri 08:36:54 AM 31.6828 -92.9583 220° Southwest 367 422 35,900  Descending Houston Center
Fri 08:37:56 AM 31.6050 -93.0333 219° Southwest 364 419 36,000  Climbing Houston Center
Fri 08:38:57 AM 31.5108 -93.1239 219° Southwest 366 421 35,900  Descending Houston Center
Fri 08:39:59 AM 31.4314 -93.1997 219° Southwest 368 423 36,000 49 Climbing Houston Center
Fri 08:41:00 AM 31.3494 -93.2778 219° Southwest 366 421 36,000  Level Houston Center
Fri 08:42:02 AM 31.2706 -93.3533 219° Southwest 367 422 36,000 -244 Level Houston Center
Fri 08:43:03 AM 31.1967 -93.4250 220° Southwest 363 418 35,500 -878 Descending Houston Center
Fri 08:44:05 AM 31.1272 -93.5122 227° Southwest 366 421 34,200 -1,610 Descending Houston Center
Fri 08:45:06 AM 31.0581 -93.6011 228° Southwest 370 426 32,200 -2,146 Descending Houston Center
Fri 08:46:08 AM 30.9733 -93.7064 227° Southwest 370 426 29,800 -2,129 Descending Houston Center
Fri 08:47:10 AM 30.9011 -93.7978 227° Southwest 382 440 27,800 -2,098 Descending Houston Center
Fri 08:48:11 AM 30.8261 -93.8914 227° Southwest 395 455 25,500 -2,585 Descending Houston Center
Fri 08:49:13 AM 30.7514 -93.9839 227° Southwest 396 456 22,500 -2,903 Descending Houston Center
Fri 08:50:15 AM 30.6761 -94.0767 227° Southwest 397 457 19,500 -3,148 Descending Houston Center
Fri 08:51:15 AM 30.5958 -94.1761 227° Southwest 380 437 16,100 -2,976 Descending Houston Center
Fri 08:52:18 AM 30.5206 -94.2692 227° Southwest 367 422 13,400 -2,512 Descending Houston Center
Fri 08:52:41 AM 30.4944 -94.2989 224° Southwest 360 414 12,500 -2,323 Descending Houston Center
Fri 08:53:20 AM 30.4536 -94.3517 228° Southwest 355 409 11,000 -1,475 Descending Houston Center
Fri 08:53:42 AM 30.4272 -94.3828 225° Southwest 336 387 11,000 -484 Level Houston Center
Fri 08:54:22 AM 30.3931 -94.4258 227° Southwest 322 371 10,500 -689 Descending Houston Center
Fri 08:54:43 AM 30.3717 -94.4606 234° Southwest 283 326 10,300 -871 Descending Houston Center
Fri 08:55:24 AM 30.3506 -94.4975 236° Southwest 289 333 9,600 -984 Descending Houston Center
Fri 08:55:44 AM 30.3283 -94.5339 235° Southwest 285 328 9,300 -984 Descending Houston Center
Fri 08:56:25 AM 30.3067 -94.5733 238° Southwest 285 328 8,600 -1,082 Descending Houston Center
Fri 08:56:45 AM 30.2858 -94.6144 240° Southwest 279 321 8,200 -1,161 Descending Houston Center
Fri 08:57:27 AM 30.2600 -94.6625 238° Southwest 269 310 7,400 -1,082 Descending Houston Center
Fri 08:57:46 AM 30.2481 -94.6797 231° Southwest 241 277 7,100 -968 Descending Houston Center
Fri 08:58:29 AM 30.2261 -94.7267 242° Southwest 238 274 6,400 -984 Descending Houston Center
Fri 08:58:47 AM 30.2125 -94.7472 233° Southwest 225 259 6,100 -968 Descending Houston Center
Fri 08:59:31 AM 30.1928 -94.7856 239° Southwest 223 257 5,400 -962 Descending Houston Center
Fri 09:00:33 AM 30.1592 -94.8511 239° Southwest 235 270 4,400 -911 Descending Houston Center
Fri 09:00:50 AM 30.1469 -94.8764 241° Southwest 240 276 4,200 -492 Descending Houston Center
Fri 09:01:34 AM 30.1278 -94.9153 240° Southwest 230 265 3,900 -448 Descending Houston Center
Fri 09:01:57 AM 30.1100 -94.9511 240° Southwest 230 265 3,700 -774 Descending Houston Center
Fri 09:02:36 AM 30.0953 -94.9797 239° Southwest 232 267 3,100 -764 Descending Houston Center
Fri 09:02:52 AM 30.0775 -95.0061 232° Southwest 226 260 3,000 -194 Descending Houston Center
Fri 09:03:38 AM 30.0542 -95.0489 238° Southwest 220 253 2,900  Descending Houston Center
Fri 09:03:53 AM 30.0453 -95.0656 238° Southwest 217 250 3,000  Climbing Houston Center
Fri 09:04:40 AM 30.0219 -95.1108 239° Southwest 224 258 2,900 97 Descending Houston Center
Fri 09:04:55 AM 30.0131 -95.1275 238° Southwest 225 259 3,100 800 Climbing Houston Center

Login

Don't have an account? Register now (free) for customized features, flight alerts, and more!